createdAt,value
2022-09-14T00:01:21.262Z,17.10
2022-09-14T00:03:44.167Z,17.10
2022-09-14T00:06:12.676Z,17.10
2022-09-14T00:08:39.464Z,17.20
2022-09-14T00:11:07.368Z,17.20
2022-09-14T00:13:34.376Z,17.10
2022-09-14T00:16:22.053Z,17.10
2022-09-14T00:18:59.678Z,17.10
2022-09-14T00:21:28.135Z,17.10
2022-09-14T00:23:57.591Z,17.10
2022-09-14T00:26:24.640Z,17.00
2022-09-14T00:28:56.080Z,16.90
2022-09-14T00:31:23.226Z,16.90
2022-09-14T00:33:51.625Z,16.80
2022-09-14T00:36:26.192Z,16.80
2022-09-14T00:38:53.699Z,16.70
2022-09-14T00:41:25.444Z,16.70
2022-09-14T00:43:57.982Z,16.70
2022-09-14T00:46:25.885Z,16.70
2022-09-14T00:48:52.757Z,16.70
2022-09-14T00:51:19.547Z,16.70
2022-09-14T00:53:46.290Z,16.70
2022-09-14T00:56:14.198Z,16.70
2022-09-14T00:58:41.895Z,16.70
2022-09-14T01:01:08.636Z,16.70
2022-09-14T01:03:35.383Z,16.70
2022-09-14T01:06:15.970Z,16.70
2022-09-14T01:09:22.071Z,16.70
2022-09-14T01:12:00.887Z,16.70
2022-09-14T01:15:04.795Z,16.70
2022-09-14T01:18:02.604Z,16.70
2022-09-14T01:20:52.502Z,16.70
2022-09-14T01:23:44.258Z,16.70
2022-09-14T01:26:31.972Z,16.60
2022-09-14T01:29:13.666Z,16.60
2022-09-14T01:31:43.338Z,16.50
2022-09-14T01:34:16.139Z,16.50
2022-09-14T01:36:43.958Z,16.40
2022-09-14T01:39:10.648Z,16.40
2022-09-14T01:41:37.361Z,16.40
2022-09-14T01:44:16.408Z,16.40
2022-09-14T01:46:48.994Z,16.40
2022-09-14T01:49:26.764Z,16.40
2022-09-14T01:52:01.854Z,16.40
2022-09-14T01:54:43.512Z,16.40
2022-09-14T01:57:32.005Z,16.30
2022-09-14T02:00:02.033Z,16.30
2022-09-14T02:02:36.922Z,16.30
2022-09-14T02:05:07.854Z,16.30
2022-09-14T02:07:34.786Z,16.30
2022-09-14T02:10:01.592Z,16.20
2022-09-14T02:12:30.123Z,16.20
2022-09-14T02:14:56.803Z,16.20
2022-09-14T02:17:23.464Z,16.10
2022-09-14T02:19:59.141Z,16.20
2022-09-14T02:22:26.537Z,16.10
2022-09-14T02:24:54.428Z,16.10
2022-09-14T02:27:31.248Z,16.10
2022-09-14T02:29:58.107Z,16.00
2022-09-14T02:32:59.872Z,16.00
2022-09-14T02:35:28.040Z,16.00
2022-09-14T02:38:00.919Z,16.00
2022-09-14T02:40:53.239Z,16.00
2022-09-14T02:43:33.160Z,16.00
2022-09-14T02:46:24.115Z,16.00
2022-09-14T02:49:02.820Z,16.00
2022-09-14T02:51:58.603Z,16.00
2022-09-14T02:54:30.011Z,16.00
2022-09-14T02:57:00.559Z,16.00
2022-09-14T02:59:27.380Z,16.00
2022-09-14T03:01:54.123Z,16.00
2022-09-14T03:04:20.797Z,16.00
2022-09-14T03:06:47.543Z,16.00
2022-09-14T03:09:14.162Z,16.00
2022-09-14T03:11:40.779Z,16.00
2022-09-14T03:14:07.624Z,16.00
2022-09-14T03:16:35.504Z,16.00
2022-09-14T03:19:02.175Z,16.00
2022-09-14T03:21:28.862Z,16.00
2022-09-14T03:23:55.571Z,15.90
2022-09-14T03:26:23.226Z,15.90
2022-09-14T03:28:54.226Z,15.90
2022-09-14T03:31:21.201Z,15.90
2022-09-14T03:33:51.969Z,16.00
2022-09-14T03:36:19.086Z,16.00
2022-09-14T03:38:46.926Z,15.90
2022-09-14T03:41:13.703Z,15.90
2022-09-14T03:43:51.000Z,15.90
2022-09-14T03:46:18.982Z,15.90
2022-09-14T03:48:45.706Z,15.90
2022-09-14T03:51:12.840Z,15.90
2022-09-14T03:53:39.836Z,15.90
2022-09-14T03:56:17.481Z,15.90
2022-09-14T03:58:44.688Z,15.90
2022-09-14T04:01:13.072Z,15.90
2022-09-14T04:03:46.159Z,15.90
2022-09-14T04:06:16.281Z,15.90
2022-09-14T04:08:46.464Z,15.90
2022-09-14T04:11:17.024Z,16.00
2022-09-14T04:13:43.668Z,16.00
2022-09-14T04:16:10.442Z,15.90
2022-09-14T04:18:40.148Z,16.00
2022-09-14T04:21:09.733Z,15.90
2022-09-14T04:23:51.279Z,15.90
2022-09-14T04:26:25.480Z,15.90
2022-09-14T04:28:52.436Z,15.90
2022-09-14T04:31:19.093Z,15.90
2022-09-14T04:33:45.877Z,15.90
2022-09-14T04:36:17.054Z,15.90
2022-09-14T04:38:44.046Z,15.90
2022-09-14T04:41:13.199Z,15.90
2022-09-14T04:43:39.966Z,15.90
2022-09-14T04:46:17.614Z,15.90
2022-09-14T04:48:44.711Z,15.90
2022-09-14T04:51:24.447Z,15.90
2022-09-14T04:53:53.385Z,15.90
2022-09-14T04:56:20.853Z,15.80
2022-09-14T04:58:51.611Z,15.80
2022-09-14T05:01:21.081Z,15.80
2022-09-14T05:03:47.974Z,15.70
2022-09-14T05:06:16.492Z,15.70
2022-09-14T05:08:43.347Z,15.70
2022-09-14T05:11:17.441Z,15.70
2022-09-14T05:13:49.574Z,15.70
2022-09-14T05:16:20.598Z,15.70
2022-09-14T05:18:47.629Z,15.70
2022-09-14T05:21:15.996Z,15.70
2022-09-14T05:23:42.841Z,15.70
2022-09-14T05:26:09.506Z,15.70
2022-09-14T05:28:36.312Z,15.60
2022-09-14T05:31:10.225Z,15.60
2022-09-14T05:33:38.123Z,15.70
2022-09-14T05:36:06.500Z,15.60
2022-09-14T05:38:38.038Z,15.60
2022-09-14T05:41:05.113Z,15.60
2022-09-14T05:43:31.938Z,15.60
2022-09-14T05:46:10.018Z,15.60
2022-09-14T05:48:39.818Z,15.50
2022-09-14T05:51:12.888Z,15.50
2022-09-14T05:53:39.793Z,15.50
2022-09-14T05:56:11.775Z,15.50
2022-09-14T05:58:38.790Z,15.50
2022-09-14T06:01:18.593Z,15.50
2022-09-14T06:03:45.498Z,15.40
2022-09-14T06:06:14.098Z,15.40
2022-09-14T06:08:43.694Z,15.40
2022-09-14T06:11:11.523Z,15.40
2022-09-14T06:13:38.278Z,15.40
2022-09-14T06:16:08.866Z,15.40
2022-09-14T06:18:36.207Z,15.30
2022-09-14T06:21:03.099Z,15.30
2022-09-14T06:23:30.088Z,15.30
2022-09-14T06:25:59.734Z,15.30
2022-09-14T06:28:26.711Z,15.30
2022-09-14T06:30:55.336Z,15.30
2022-09-14T06:33:24.328Z,15.30
2022-09-14T06:35:58.110Z,15.30
2022-09-14T06:38:25.313Z,15.30
2022-09-14T06:40:56.045Z,15.30
2022-09-14T06:43:24.697Z,15.30
2022-09-14T06:46:01.350Z,15.20
2022-09-14T06:48:31.006Z,15.20
2022-09-14T06:51:00.255Z,15.30
2022-09-14T06:53:30.687Z,15.20
2022-09-14T06:55:58.684Z,15.20
2022-09-14T06:58:25.390Z,15.20
2022-09-14T07:00:52.334Z,15.20
2022-09-14T07:03:22.051Z,15.20
2022-09-14T07:05:48.982Z,15.20
2022-09-14T07:08:17.138Z,15.30
2022-09-14T07:10:43.877Z,15.30
2022-09-14T07:13:10.851Z,15.30
2022-09-14T07:15:37.574Z,15.30
2022-09-14T07:18:04.260Z,15.30
2022-09-14T07:20:32.088Z,15.40
2022-09-14T07:22:58.860Z,15.40
2022-09-14T07:25:25.622Z,15.40
2022-09-14T07:27:52.553Z,15.40
2022-09-14T07:30:19.231Z,15.40
2022-09-14T07:32:46.074Z,15.40
2022-09-14T07:35:13.125Z,15.40
2022-09-14T07:37:40.006Z,15.40
2022-09-14T07:40:10.445Z,15.40
2022-09-14T07:42:37.338Z,15.50
2022-09-14T07:45:05.512Z,15.40
2022-09-14T07:47:32.235Z,15.40
2022-09-14T07:49:59.006Z,15.50
2022-09-14T09:09:43.873Z,15.70
2022-09-14T17:32:04.386Z,16.50
2022-09-14T17:34:31.186Z,16.50
2022-09-14T17:39:50.253Z,16.40
2022-09-14T17:42:17.169Z,16.30
2022-09-14T17:44:46.871Z,16.30
2022-09-14T17:47:24.771Z,16.20
2022-09-14T17:49:51.538Z,16.10
2022-09-14T17:52:20.505Z,16.00
2022-09-14T17:54:47.274Z,15.90
2022-09-14T17:57:14.128Z,15.90
2022-09-14T17:59:40.880Z,15.80
2022-09-14T18:02:10.558Z,15.80
2022-09-14T20:41:07.053Z,14.40
2022-09-14T20:43:43.439Z,14.40
2022-09-14T20:46:17.125Z,14.40
2022-09-14T20:48:47.140Z,14.40
2022-09-14T20:51:17.217Z,14.40
2022-09-14T20:53:46.707Z,14.30
2022-09-14T20:56:16.099Z,14.30
2022-09-14T20:58:43.197Z,14.30
2022-09-14T21:01:15.194Z,14.20
2022-09-14T21:03:42.538Z,14.20
2022-09-14T21:06:11.174Z,14.20
2022-09-14T21:08:38.712Z,14.10
2022-09-14T21:11:10.879Z,14.10
2022-09-14T21:13:41.411Z,14.10
2022-09-14T21:16:16.536Z,14.10
2022-09-14T21:18:44.783Z,14.10
2022-09-14T21:21:13.376Z,14.10
2022-09-14T21:23:50.452Z,14.10
2022-09-14T21:26:18.214Z,14.10
2022-09-14T21:28:51.686Z,14.10
2022-09-14T21:31:19.768Z,14.00
2022-09-14T21:33:52.331Z,14.10
2022-09-14T21:36:23.378Z,14.10
2022-09-14T21:39:00.607Z,14.10
2022-09-14T21:41:29.445Z,14.10
2022-09-14T21:43:58.993Z,14.20
2022-09-14T21:46:25.866Z,14.20
2022-09-14T21:48:53.423Z,14.30
2022-09-14T21:51:24.448Z,14.30
2022-09-14T21:53:52.932Z,14.30
2022-09-14T21:56:20.289Z,14.30
2022-09-14T21:58:54.488Z,14.30
2022-09-14T22:01:21.451Z,14.40
2022-09-14T22:03:48.935Z,14.40
2022-09-14T22:06:15.626Z,14.40
2022-09-14T22:08:42.539Z,14.30
2022-09-14T22:11:11.859Z,14.30
2022-09-14T22:13:38.585Z,14.30
2022-09-14T22:16:09.356Z,14.20
2022-09-14T22:18:36.829Z,14.20
2022-09-14T22:21:04.144Z,14.10
2022-09-14T22:23:31.403Z,14.10
2022-09-14T22:25:58.214Z,14.10
2022-09-14T22:28:25.228Z,14.10
2022-09-14T22:30:52.864Z,14.00
2022-09-14T22:33:20.730Z,14.00
2022-09-14T22:35:51.861Z,13.90
2022-09-14T22:38:30.677Z,13.90
2022-09-14T22:41:24.541Z,13.90
2022-09-14T22:43:51.433Z,13.90
2022-09-14T22:46:18.515Z,13.90
2022-09-14T22:48:45.494Z,13.80
2022-09-14T22:51:20.619Z,13.80
2022-09-14T22:53:47.317Z,13.80
2022-09-14T22:56:21.739Z,13.80
2022-09-14T22:58:48.977Z,13.70
2022-09-14T23:01:23.940Z,13.70
2022-09-14T23:03:54.884Z,13.70
2022-09-14T23:06:21.525Z,13.70
2022-09-14T23:08:48.180Z,13.70
2022-09-14T23:11:14.827Z,13.60
2022-09-14T23:13:42.123Z,13.70
2022-09-14T23:16:18.693Z,13.60
2022-09-14T23:22:16.119Z,13.60
2022-09-14T23:24:42.879Z,13.70
2022-09-14T23:27:12.310Z,13.70
2022-09-14T23:29:38.979Z,13.70
2022-09-14T23:32:05.604Z,13.80
2022-09-14T23:34:32.199Z,13.90
2022-09-14T23:36:59.036Z,13.90
2022-09-14T23:39:25.676Z,13.90
2022-09-14T23:52:19.075Z,14.10
2022-09-14T23:54:45.743Z,14.20
2022-09-14T23:57:12.600Z,14.20
2022-09-14T23:59:39.268Z,14.20
